sensor_id;sensor_type;location;lat;lon;timestamp;pressure;altitude;pressure_sealevel;temperature;humidity
71907;BME280;59781;52.090;5.030;2023-04-02T00:02:54;101184.91;;;6.68;100.00
71907;BME280;59781;52.090;5.030;2023-04-02T00:08:21;101191.72;;;6.32;100.00
71907;BME280;59781;52.090;5.030;2023-04-02T00:10:51;101195.72;;;6.17;100.00
71907;BME280;59781;52.090;5.030;2023-04-02T00:15:55;101199.38;;;6.46;100.00
71907;BME280;59781;52.090;5.030;2023-04-02T00:18:23;101204.91;;;6.24;100.00
71907;BME280;59781;52.090;5.030;2023-04-02T00:21:32;101209.69;;;6.20;100.00
71907;BME280;59781;52.090;5.030;2023-04-02T00:24:05;101211.50;;;6.50;100.00
71907;BME280;59781;52.090;5.030;2023-04-02T00:26:45;101214.03;;;6.52;100.00
71907;BME280;59781;52.090;5.030;2023-04-02T00:29:15;101218.47;;;6.32;100.00
71907;BME280;59781;52.090;5.030;2023-04-02T00:31:45;101218.28;;;6.54;100.00
71907;BME280;59781;52.090;5.030;2023-04-02T00:34:22;101230.25;;;6.50;100.00
71907;BME280;59781;52.090;5.030;2023-04-02T00:36:53;101227.22;;;6.34;100.00
71907;BME280;59781;52.090;5.030;2023-04-02T00:39:24;101231.03;;;6.81;100.00
71907;BME280;59781;52.090;5.030;2023-04-02T00:41:55;101236.09;;;6.84;100.00
71907;BME280;59781;52.090;5.030;2023-04-02T00:44:31;101251.13;;;6.66;100.00
71907;BME280;59781;52.090;5.030;2023-04-02T00:47:26;101258.78;;;6.19;100.00
71907;BME280;59781;52.090;5.030;2023-04-02T00:50:13;101261.22;;;6.22;100.00
71907;BME280;59781;52.090;5.030;2023-04-02T00:53:11;101269.38;;;6.21;100.00
71907;BME280;59781;52.090;5.030;2023-04-02T00:55:47;101264.03;;;6.51;100.00
71907;BME280;59781;52.090;5.030;2023-04-02T00:58:25;101264.81;;;6.73;100.00
71907;BME280;59781;52.090;5.030;2023-04-02T01:00:55;101267.06;;;6.37;100.00
71907;BME280;59781;52.090;5.030;2023-04-02T01:03:30;101278.97;;;6.23;100.00
71907;BME280;59781;52.090;5.030;2023-04-02T01:23:58;101306.16;;;6.08;100.00
71907;BME280;59781;52.090;5.030;2023-04-02T01:26:56;101308.38;;;6.23;100.00
71907;BME280;59781;52.090;5.030;2023-04-02T01:29:32;101312.41;;;5.97;100.00
71907;BME280;59781;52.090;5.030;2023-04-02T01:32:13;101314.78;;;5.90;100.00
71907;BME280;59781;52.090;5.030;2023-04-02T01:34:46;101317.06;;;5.95;100.00
71907;BME280;59781;52.090;5.030;2023-04-02T01:37:41;101326.66;;;5.86;100.00
71907;BME280;59781;52.090;5.030;2023-04-02T01:40:37;101340.22;;;6.06;100.00
71907;BME280;59781;52.090;5.030;2023-04-02T01:43:15;101339.22;;;5.74;100.00
71907;BME280;59781;52.090;5.030;2023-04-02T01:45:44;101341.69;;;5.66;100.00
71907;BME280;59781;52.090;5.030;2023-04-02T01:48:17;101348.72;;;5.99;100.00
71907;BME280;59781;52.090;5.030;2023-04-02T01:50:48;101356.38;;;6.04;100.00
71907;BME280;59781;52.090;5.030;2023-04-02T01:53:19;101357.88;;;5.97;100.00
71907;BME280;59781;52.090;5.030;2023-04-02T01:55:55;101364.00;;;5.76;100.00
71907;BME280;59781;52.090;5.030;2023-04-02T01:58:31;101365.91;;;5.86;100.00
71907;BME280;59781;52.090;5.030;2023-04-02T02:01:05;101374.63;;;5.56;100.00
71907;BME280;59781;52.090;5.030;2023-04-02T02:03:41;101373.72;;;5.78;100.00
71907;BME280;59781;52.090;5.030;2023-04-02T02:06:14;101374.59;;;5.67;100.00
71907;BME280;59781;52.090;5.030;2023-04-02T02:11:26;101389.31;;;6.04;100.00
71907;BME280;59781;52.090;5.030;2023-04-02T02:13:57;101392.13;;;6.24;100.00
71907;BME280;59781;52.090;5.030;2023-04-02T02:16:28;101390.25;;;6.15;100.00
71907;BME280;59781;52.090;5.030;2023-04-02T02:19:00;101394.78;;;5.60;100.00
71907;BME280;59781;52.090;5.030;2023-04-02T02:21:44;101399.47;;;5.79;100.00
71907;BME280;59781;52.090;5.030;2023-04-02T02:24:28;101402.31;;;5.66;100.00
71907;BME280;59781;52.090;5.030;2023-04-02T02:27:17;101405.00;;;5.55;100.00
71907;BME280;59781;52.090;5.030;2023-04-02T02:30:27;101421.69;;;5.79;100.00
71907;BME280;59781;52.090;5.030;2023-04-02T02:35:37;101423.19;;;5.72;100.00
71907;BME280;59781;52.090;5.030;2023-04-02T02:41:41;101442.97;;;5.81;100.00
71907;BME280;59781;52.090;5.030;2023-04-02T02:44:22;101443.50;;;5.52;100.00
71907;BME280;59781;52.090;5.030;2023-04-02T02:49:29;101452.75;;;5.26;100.00
71907;BME280;59781;52.090;5.030;2023-04-02T02:54:53;101464.78;;;5.31;100.00
71907;BME280;59781;52.090;5.030;2023-04-02T02:57:31;101469.75;;;5.36;100.00
71907;BME280;59781;52.090;5.030;2023-04-02T03:00:04;101467.91;;;5.47;100.00
71907;BME280;59781;52.090;5.030;2023-04-02T03:02:36;101476.53;;;5.62;100.00
71907;BME280;59781;52.090;5.030;2023-04-02T03:05:07;101481.75;;;5.19;100.00
71907;BME280;59781;52.090;5.030;2023-04-02T03:07:35;101488.31;;;5.15;100.00
71907;BME280;59781;52.090;5.030;2023-04-02T03:10:15;101494.97;;;5.09;100.00
71907;BME280;59781;52.090;5.030;2023-04-02T03:13:18;101498.91;;;4.81;100.00
71907;BME280;59781;52.090;5.030;2023-04-02T03:22:03;101521.19;;;5.04;100.00
71907;BME280;59781;52.090;5.030;2023-04-02T03:24:50;101527.09;;;4.97;100.00
71907;BME280;59781;52.090;5.030;2023-04-02T03:27:33;101525.91;;;5.01;100.00
71907;BME280;59781;52.090;5.030;2023-04-02T03:30:17;101539.75;;;5.17;100.00
71907;BME280;59781;52.090;5.030;2023-04-02T03:33:02;101547.50;;;5.09;100.00
71907;BME280;59781;52.090;5.030;2023-04-02T03:38:19;101557.13;;;4.76;100.00
71907;BME280;59781;52.090;5.030;2023-04-02T03:41:00;101561.25;;;4.80;100.00
71907;BME280;59781;52.090;5.030;2023-04-02T03:43:39;101572.59;;;4.95;100.00
71907;BME280;59781;52.090;5.030;2023-04-02T03:46:23;101581.28;;;4.75;100.00
71907;BME280;59781;52.090;5.030;2023-04-02T03:49:06;101586.22;;;4.68;100.00
71907;BME280;59781;52.090;5.030;2023-04-02T03:51:51;101586.72;;;4.73;100.00
71907;BME280;59781;52.090;5.030;2023-04-02T03:54:22;101593.84;;;4.97;100.00
71907;BME280;59781;52.090;5.030;2023-04-02T03:56:48;101602.81;;;4.72;100.00
71907;BME280;59781;52.090;5.030;2023-04-02T04:05:13;101615.13;;;4.74;100.00
71907;BME280;59781;52.090;5.030;2023-04-02T04:07:46;101619.88;;;4.58;100.00
71907;BME280;59781;52.090;5.030;2023-04-02T04:10:22;101621.06;;;4.54;100.00
71907;BME280;59781;52.090;5.030;2023-04-02T04:12:54;101625.06;;;4.72;100.00
71907;BME280;59781;52.090;5.030;2023-04-02T04:20:55;101646.53;;;4.34;100.00
71907;BME280;59781;52.090;5.030;2023-04-02T04:23:37;101658.25;;;4.44;100.00
71907;BME280;59781;52.090;5.030;2023-04-02T04:28:56;101666.81;;;4.60;100.00
71907;BME280;59781;52.090;5.030;2023-04-02T04:31:44;101667.88;;;4.34;100.00
71907;BME280;59781;52.090;5.030;2023-04-02T04:34:41;101672.31;;;4.46;100.00
71907;BME280;59781;52.090;5.030;2023-04-02T04:37:20;101679.59;;;4.68;100.00
71907;BME280;59781;52.090;5.030;2023-04-02T04:39:57;101681.03;;;4.85;100.00
71907;BME280;59781;52.090;5.030;2023-04-02T04:42:33;101686.00;;;4.89;100.00
71907;BME280;59781;52.090;5.030;2023-04-02T04:45:45;101684.56;;;4.49;100.00
71907;BME280;59781;52.090;5.030;2023-04-02T04:48:33;101699.16;;;4.56;100.00
71907;BME280;59781;52.090;5.030;2023-04-02T04:51:47;101698.69;;;4.38;100.00
71907;BME280;59781;52.090;5.030;2023-04-02T04:54:18;101701.91;;;4.67;100.00
71907;BME280;59781;52.090;5.030;2023-04-02T04:56:54;101712.28;;;4.59;100.00
71907;BME280;59781;52.090;5.030;2023-04-02T04:59:43;101715.03;;;4.34;100.00
71907;BME280;59781;52.090;5.030;2023-04-02T05:02:23;101720.56;;;4.30;100.00
71907;BME280;59781;52.090;5.030;2023-04-02T05:04:59;101732.91;;;4.31;100.00
71907;BME280;59781;52.090;5.030;2023-04-02T05:07:30;101732.31;;;4.15;100.00
71907;BME280;59781;52.090;5.030;2023-04-02T05:13:39;101750.09;;;4.40;100.00
71907;BME280;59781;52.090;5.030;2023-04-02T05:21:51;101764.09;;;4.06;100.00
71907;BME280;59781;52.090;5.030;2023-04-02T05:24:31;101762.06;;;4.09;100.00
71907;BME280;59781;52.090;5.030;2023-04-02T05:33:17;101777.81;;;3.87;100.00
71907;BME280;59781;52.090;5.030;2023-04-02T05:35:56;101796.25;;;3.77;100.00
71907;BME280;59781;52.090;5.030;2023-04-02T05:38:48;101799.88;;;3.76;100.00
71907;BME280;59781;52.090;5.030;2023-04-02T05:41:39;101801.38;;;3.40;100.00
71907;BME280;59781;52.090;5.030;2023-04-02T05:47:04;101822.16;;;3.21;100.00
71907;BME280;59781;52.090;5.030;2023-04-02T05:50:15;101841.31;;;3.67;100.00
71907;BME280;59781;52.090;5.030;2023-04-02T05:53:01;101839.94;;;3.74;100.00
71907;BME280;59781;52.090;5.030;2023-04-02T05:55:57;101843.63;;;3.59;100.00
71907;BME280;59781;52.090;5.030;2023-04-02T05:58:38;101865.50;;;3.23;100.00
71907;BME280;59781;52.090;5.030;2023-04-02T06:01:22;101867.56;;;3.32;100.00
71907;BME280;59781;52.090;5.030;2023-04-02T06:04:26;101873.47;;;2.96;100.00
71907;BME280;59781;52.090;5.030;2023-04-02T06:10:23;101885.09;;;3.22;100.00
71907;BME280;59781;52.090;5.030;2023-04-02T06:12:59;101891.94;;;3.53;100.00
71907;BME280;59781;52.090;5.030;2023-04-02T06:15:37;101896.16;;;3.02;100.00
71907;BME280;59781;52.090;5.030;2023-04-02T06:18:19;101897.22;;;2.99;100.00
71907;BME280;59781;52.090;5.030;2023-04-02T06:20:49;101915.59;;;3.45;100.00
71907;BME280;59781;52.090;5.030;2023-04-02T06:26:40;101928.00;;;3.17;100.00
71907;BME280;59781;52.090;5.030;2023-04-02T06:29:34;101929.88;;;3.30;100.00
71907;BME280;59781;52.090;5.030;2023-04-02T06:32:08;101933.88;;;3.08;100.00
71907;BME280;59781;52.090;5.030;2023-04-02T06:34:41;101936.06;;;3.16;100.00
71907;BME280;59781;52.090;5.030;2023-04-02T06:39:58;101959.47;;;2.97;100.00
71907;BME280;59781;52.090;5.030;2023-04-02T06:42:37;101962.69;;;3.02;100.00
71907;BME280;59781;52.090;5.030;2023-04-02T06:45:32;101960.59;;;3.21;100.00
71907;BME280;59781;52.090;5.030;2023-04-02T06:48:18;101972.56;;;3.28;100.00
71907;BME280;59781;52.090;5.030;2023-04-02T06:51:10;101982.34;;;2.99;100.00
71907;BME280;59781;52.090;5.030;2023-04-02T06:53:48;101987.06;;;3.51;100.00
71907;BME280;59781;52.090;5.030;2023-04-02T06:56:43;101991.00;;;3.45;100.00
71907;BME280;59781;52.090;5.030;2023-04-02T06:59:16;101997.56;;;3.26;100.00
71907;BME280;59781;52.090;5.030;2023-04-02T07:01:51;101992.63;;;3.20;100.00
71907;BME280;59781;52.090;5.030;2023-04-02T07:04:22;102007.81;;;3.03;100.00
71907;BME280;59781;52.090;5.030;2023-04-02T07:06:51;102012.63;;;2.82;100.00
71907;BME280;59781;52.090;5.030;2023-04-02T07:09:18;102016.06;;;2.84;100.00
71907;BME280;59781;52.090;5.030;2023-04-02T07:11:48;102037.81;;;2.77;100.00
71907;BME280;59781;52.090;5.030;2023-04-02T07:14:15;102034.22;;;2.78;100.00
71907;BME280;59781;52.090;5.030;2023-04-02T07:16:42;102032.91;;;2.55;100.00
71907;BME280;59781;52.090;5.030;2023-04-02T07:19:21;102049.41;;;2.76;100.00
71907;BME280;59781;52.090;5.030;2023-04-02T07:21:51;102045.25;;;2.86;100.00
71907;BME280;59781;52.090;5.030;2023-04-02T07:24:18;102056.47;;;2.91;100.00
71907;BME280;59781;52.090;5.030;2023-04-02T07:26:44;102054.41;;;3.10;100.00
71907;BME280;59781;52.090;5.030;2023-04-02T07:29:14;102058.31;;;3.19;100.00
71907;BME280;59781;52.090;5.030;2023-04-02T07:31:42;102054.72;;;3.49;100.00
71907;BME280;59781;52.090;5.030;2023-04-02T07:34:09;102067.41;;;3.01;100.00
71907;BME280;59781;52.090;5.030;2023-04-02T07:36:35;102065.06;;;3.10;100.00
71907;BME280;59781;52.090;5.030;2023-04-02T07:39:02;102075.34;;;3.16;100.00
71907;BME280;59781;52.090;5.030;2023-04-02T07:41:28;102083.28;;;3.02;100.00
71907;BME280;59781;52.090;5.030;2023-04-02T07:43:54;102071.38;;;2.94;100.00
71907;BME280;59781;52.090;5.030;2023-04-02T07:46:20;102094.69;;;3.04;100.00
71907;BME280;59781;52.090;5.030;2023-04-02T07:48:46;102086.03;;;3.01;100.00
71907;BME280;59781;52.090;5.030;2023-04-02T07:51:16;102093.31;;;3.27;100.00
71907;BME280;59781;52.090;5.030;2023-04-02T07:53:43;102099.00;;;3.21;100.00
71907;BME280;59781;52.090;5.030;2023-04-02T07:56:16;102111.00;;;3.28;100.00
71907;BME280;59781;52.090;5.030;2023-04-02T07:58:44;102096.75;;;3.43;100.00
71907;BME280;59781;52.090;5.030;2023-04-02T08:01:25;102095.50;;;3.49;100.00
71907;BME280;59781;52.090;5.030;2023-04-02T08:03:54;102117.88;;;3.47;100.00
71907;BME280;59781;52.090;5.030;2023-04-02T08:06:23;102106.53;;;3.43;100.00
71907;BME280;59781;52.090;5.030;2023-04-02T08:08:49;102117.47;;;3.53;100.00
71907;BME280;59781;52.090;5.030;2023-04-02T08:11:15;102111.13;;;3.69;100.00
71907;BME280;59781;52.090;5.030;2023-04-02T08:13:41;102122.44;;;3.59;100.00
71907;BME280;59781;52.090;5.030;2023-04-02T08:16:08;102131.00;;;3.50;100.00
71907;BME280;59781;52.090;5.030;2023-04-02T08:18:35;102140.59;;;3.38;100.00
71907;BME280;59781;52.090;5.030;2023-04-02T08:21:05;102148.59;;;3.52;100.00
71907;BME280;59781;52.090;5.030;2023-04-02T08:23:33;102148.91;;;3.17;100.00
71907;BME280;59781;52.090;5.030;2023-04-02T08:26:00;102155.53;;;3.10;100.00
71907;BME280;59781;52.090;5.030;2023-04-02T08:28:26;102149.31;;;3.26;100.00
71907;BME280;59781;52.090;5.030;2023-04-02T08:30:52;102157.38;;;3.24;100.00
71907;BME280;59781;52.090;5.030;2023-04-02T08:33:18;102170.84;;;3.51;100.00
71907;BME280;59781;52.090;5.030;2023-04-02T08:35:47;102167.66;;;3.30;100.00
71907;BME280;59781;52.090;5.030;2023-04-02T08:38:16;102166.06;;;3.28;100.00
71907;BME280;59781;52.090;5.030;2023-04-02T08:40:46;102177.13;;;3.50;100.00
71907;BME280;59781;52.090;5.030;2023-04-02T08:43:34;102183.84;;;3.41;100.00
71907;BME280;59781;52.090;5.030;2023-04-02T08:46:31;102188.38;;;3.55;100.00
71907;BME280;59781;52.090;5.030;2023-04-02T08:49:02;102193.72;;;3.98;100.00
71907;BME280;59781;52.090;5.030;2023-04-02T08:51:39;102198.63;;;3.61;100.00
71907;BME280;59781;52.090;5.030;2023-04-02T08:56:55;102203.13;;;3.89;100.00
71907;BME280;59781;52.090;5.030;2023-04-02T08:59:33;102208.72;;;3.70;100.00
71907;BME280;59781;52.090;5.030;2023-04-02T09:04:36;102213.56;;;4.64;100.00
71907;BME280;59781;52.090;5.030;2023-04-02T09:07:03;102219.13;;;4.32;100.00
71907;BME280;59781;52.090;5.030;2023-04-02T09:09:35;102231.25;;;4.23;100.00
71907;BME280;59781;52.090;5.030;2023-04-02T09:12:03;102237.34;;;4.25;100.00
71907;BME280;59781;52.090;5.030;2023-04-02T09:14:47;102233.03;;;4.37;100.00
71907;BME280;59781;52.090;5.030;2023-04-02T09:17:23;102236.66;;;4.08;100.00
71907;BME280;59781;52.090;5.030;2023-04-02T09:20:17;102253.13;;;4.00;100.00
71907;BME280;59781;52.090;5.030;2023-04-02T09:22:48;102245.31;;;4.11;100.00
71907;BME280;59781;52.090;5.030;2023-04-02T09:25:19;102242.53;;;4.55;100.00
71907;BME280;59781;52.090;5.030;2023-04-02T09:27:50;102247.28;;;4.92;100.00
71907;BME280;59781;52.090;5.030;2023-04-02T09:33:04;102269.03;;;4.44;100.00
71907;BME280;59781;52.090;5.030;2023-04-02T09:35:55;102267.34;;;4.84;100.00
71907;BME280;59781;52.090;5.030;2023-04-02T09:38:24;102270.44;;;5.32;100.00
71907;BME280;59781;52.090;5.030;2023-04-02T09:41:00;102267.56;;;5.08;100.00
71907;BME280;59781;52.090;5.030;2023-04-02T09:43:34;102267.47;;;4.69;100.00
71907;BME280;59781;52.090;5.030;2023-04-02T09:46:21;102274.66;;;4.54;100.00
71907;BME280;59781;52.090;5.030;2023-04-02T09:48:52;102276.91;;;4.74;100.00
71907;BME280;59781;52.090;5.030;2023-04-02T09:51:27;102285.88;;;5.00;100.00
71907;BME280;59781;52.090;5.030;2023-04-02T09:56:29;102278.84;;;5.79;100.00
71907;BME280;59781;52.090;5.030;2023-04-02T09:59:17;102265.09;;;5.85;100.00
71907;BME280;59781;52.090;5.030;2023-04-02T10:01:57;102274.97;;;5.97;100.00
71907;BME280;59781;52.090;5.030;2023-04-02T10:04:42;102273.13;;;7.22;100.00
71907;BME280;59781;52.090;5.030;2023-04-02T10:07:40;102262.25;;;8.94;100.00
71907;BME280;59781;52.090;5.030;2023-04-02T10:10:31;102268.28;;;8.64;100.00
71907;BME280;59781;52.090;5.030;2023-04-02T10:13:32;102286.22;;;8.75;100.00
71907;BME280;59781;52.090;5.030;2023-04-02T10:16:29;102279.00;;;9.62;96.49
71907;BME280;59781;52.090;5.030;2023-04-02T10:19:36;102279.25;;;10.21;94.39
71907;BME280;59781;52.090;5.030;2023-04-02T10:22:14;102283.91;;;10.71;85.40
71907;BME280;59781;52.090;5.030;2023-04-02T10:24:42;102293.94;;;10.07;85.90
71907;BME280;59781;52.090;5.030;2023-04-02T10:27:29;102295.84;;;10.78;81.72
71907;BME280;59781;52.090;5.030;2023-04-02T10:30:18;102297.28;;;10.51;80.71
71907;BME280;59781;52.090;5.030;2023-04-02T10:33:04;102283.81;;;10.82;82.95
71907;BME280;59781;52.090;5.030;2023-04-02T10:39:39;102303.72;;;10.29;80.09
71907;BME280;59781;52.090;5.030;2023-04-02T10:48:21;102303.03;;;10.68;77.46
71907;BME280;59781;52.090;5.030;2023-04-02T10:51:05;102311.16;;;9.31;85.15
71907;BME280;59781;52.090;5.030;2023-04-02T11:00:06;102312.19;;;11.65;75.43
71907;BME280;59781;52.090;5.030;2023-04-02T11:03:28;102309.72;;;11.13;77.69
71907;BME280;59781;52.090;5.030;2023-04-02T11:06:13;102319.81;;;11.40;82.21
71907;BME280;59781;52.090;5.030;2023-04-02T11:08:49;102316.41;;;12.16;75.65
71907;BME280;59781;52.090;5.030;2023-04-02T11:11:23;102334.16;;;10.51;77.69
71907;BME280;59781;52.090;5.030;2023-04-02T11:14:04;102332.44;;;11.30;77.22
71907;BME280;59781;52.090;5.030;2023-04-02T11:16:38;102332.03;;;11.35;73.29
71907;BME280;59781;52.090;5.030;2023-04-02T11:27:11;102373.88;;;10.28;76.17
71907;BME280;59781;52.090;5.030;2023-04-02T11:29:47;102366.28;;;10.63;76.42
71907;BME280;59781;52.090;5.030;2023-04-02T11:42:37;102359.34;;;12.09;65.32
71907;BME280;59781;52.090;5.030;2023-04-02T11:50:40;102381.16;;;11.48;68.44
71907;BME280;59781;52.090;5.030;2023-04-02T11:55:44;102382.38;;;12.23;64.09
71907;BME280;59781;52.090;5.030;2023-04-02T12:01:28;102393.19;;;12.23;64.69
71907;BME280;59781;52.090;5.030;2023-04-02T12:10:31;102386.50;;;11.19;63.06
71907;BME280;59781;52.090;5.030;2023-04-02T12:13:19;102391.19;;;11.86;63.37
71907;BME280;59781;52.090;5.030;2023-04-02T12:15:47;102398.72;;;12.12;61.95
71907;BME280;59781;52.090;5.030;2023-04-02T12:18:22;102393.47;;;11.81;63.86
71907;BME280;59781;52.090;5.030;2023-04-02T12:20:54;102392.75;;;11.19;66.96
71907;BME280;59781;52.090;5.030;2023-04-02T12:23:34;102399.44;;;11.85;63.21
71907;BME280;59781;52.090;5.030;2023-04-02T12:26:07;102392.13;;;12.53;62.44
71907;BME280;59781;52.090;5.030;2023-04-02T12:29:25;102399.00;;;10.89;62.81
71907;BME280;59781;52.090;5.030;2023-04-02T12:31:57;102399.81;;;11.51;62.58
71907;BME280;59781;52.090;5.030;2023-04-02T12:34:26;102401.94;;;11.67;62.55
71907;BME280;59781;52.090;5.030;2023-04-02T12:37:03;102404.69;;;11.96;60.03
71907;BME280;59781;52.090;5.030;2023-04-02T12:39:33;102404.13;;;11.83;62.33
71907;BME280;59781;52.090;5.030;2023-04-02T12:42:00;102410.06;;;12.44;61.10
71907;BME280;59781;52.090;5.030;2023-04-02T12:44:28;102403.13;;;11.84;61.44
71907;BME280;59781;52.090;5.030;2023-04-02T12:46:57;102419.00;;;11.77;63.66
71907;BME280;59781;52.090;5.030;2023-04-02T12:49:42;102422.28;;;12.29;60.40
71907;BME280;59781;52.090;5.030;2023-04-02T12:52:14;102418.38;;;12.80;59.47
71907;BME280;59781;52.090;5.030;2023-04-02T12:54:55;102421.69;;;11.77;60.07
71907;BME280;59781;52.090;5.030;2023-04-02T12:59:58;102428.44;;;12.21;57.43
71907;BME280;59781;52.090;5.030;2023-04-02T13:02:31;102415.59;;;12.99;56.90
71907;BME280;59781;52.090;5.030;2023-04-02T13:05:09;102417.50;;;12.89;57.07
71907;BME280;59781;52.090;5.030;2023-04-02T13:07:36;102420.91;;;12.05;61.02
71907;BME280;59781;52.090;5.030;2023-04-02T13:10:22;102426.94;;;12.56;58.42
71907;BME280;59781;52.090;5.030;2023-04-02T13:13:01;102427.06;;;11.67;60.53
71907;BME280;59781;52.090;5.030;2023-04-02T13:15:30;102428.13;;;11.86;61.08
71907;BME280;59781;52.090;5.030;2023-04-02T13:18:12;102428.41;;;12.50;61.03
71907;BME280;59781;52.090;5.030;2023-04-02T13:23:33;102430.13;;;12.42;60.27
71907;BME280;59781;52.090;5.030;2023-04-02T13:28:58;102421.88;;;13.00;56.94
71907;BME280;59781;52.090;5.030;2023-04-02T13:31:28;102426.72;;;13.33;56.77
71907;BME280;59781;52.090;5.030;2023-04-02T13:33:55;102420.66;;;13.22;57.64
71907;BME280;59781;52.090;5.030;2023-04-02T13:36:20;102431.94;;;12.98;57.40
71907;BME280;59781;52.090;5.030;2023-04-02T13:38:46;102438.09;;;12.33;61.04
71907;BME280;59781;52.090;5.030;2023-04-02T13:41:23;102443.53;;;12.90;61.07
71907;BME280;59781;52.090;5.030;2023-04-02T13:43:52;102452.69;;;12.70;58.81
71907;BME280;59781;52.090;5.030;2023-04-02T13:46:28;102450.19;;;12.96;58.06
71907;BME280;59781;52.090;5.030;2023-04-02T13:48:56;102452.94;;;12.76;61.98
71907;BME280;59781;52.090;5.030;2023-04-02T13:51:48;102452.16;;;11.98;59.30
71907;BME280;59781;52.090;5.030;2023-04-02T13:54:23;102446.91;;;13.39;59.29
71907;BME280;59781;52.090;5.030;2023-04-02T13:56:54;102441.91;;;12.50;60.90
71907;BME280;59781;52.090;5.030;2023-04-02T13:59:21;102453.53;;;11.73;61.29
71907;BME280;59781;52.090;5.030;2023-04-02T14:01:50;102452.75;;;12.02;59.06
71907;BME280;59781;52.090;5.030;2023-04-02T14:04:24;102448.34;;;12.11;60.35
71907;BME280;59781;52.090;5.030;2023-04-02T14:19:16;102462.81;;;12.39;60.36
71907;BME280;59781;52.090;5.030;2023-04-02T14:25:24;102461.19;;;12.84;57.75
71907;BME280;59781;52.090;5.030;2023-04-02T14:31:17;102476.94;;;13.08;57.03
71907;BME280;59781;52.090;5.030;2023-04-02T14:43:08;102488.56;;;12.04;60.43
71907;BME280;59781;52.090;5.030;2023-04-02T14:45:55;102495.41;;;11.68;59.18
71907;BME280;59781;52.090;5.030;2023-04-02T14:50:56;102496.84;;;11.32;61.47
71907;BME280;59781;52.090;5.030;2023-04-02T14:53:39;102499.50;;;12.12;63.20
71907;BME280;59781;52.090;5.030;2023-04-02T14:59:48;102501.19;;;11.94;61.53
71907;BME280;59781;52.090;5.030;2023-04-02T15:05:25;102490.97;;;12.26;61.76
71907;BME280;59781;52.090;5.030;2023-04-02T15:10:34;102496.84;;;13.07;63.37
71907;BME280;59781;52.090;5.030;2023-04-02T15:13:27;102500.16;;;13.01;57.61
71907;BME280;59781;52.090;5.030;2023-04-02T15:16:21;102489.81;;;12.48;60.36
71907;BME280;59781;52.090;5.030;2023-04-02T15:18:56;102492.53;;;12.58;59.29
71907;BME280;59781;52.090;5.030;2023-04-02T15:21:49;102516.56;;;12.03;59.53
71907;BME280;59781;52.090;5.030;2023-04-02T15:30:28;102517.06;;;11.16;61.32
71907;BME280;59781;52.090;5.030;2023-04-02T15:33:22;102526.69;;;10.68;64.01
71907;BME280;59781;52.090;5.030;2023-04-02T15:42:29;102523.94;;;11.30;61.77
71907;BME280;59781;52.090;5.030;2023-04-02T15:55:49;102526.81;;;10.66;66.86
71907;BME280;59781;52.090;5.030;2023-04-02T16:01:37;102532.63;;;11.03;68.59
71907;BME280;59781;52.090;5.030;2023-04-02T16:10:35;102549.31;;;10.76;66.80
71907;BME280;59781;52.090;5.030;2023-04-02T16:13:14;102552.44;;;10.28;69.07
71907;BME280;59781;52.090;5.030;2023-04-02T16:24:25;102568.38;;;10.09;70.82
71907;BME280;59781;52.090;5.030;2023-04-02T16:26:58;102567.47;;;10.31;71.38
71907;BME280;59781;52.090;5.030;2023-04-02T16:29:59;102573.56;;;9.78;71.00
71907;BME280;59781;52.090;5.030;2023-04-02T16:35:45;102574.03;;;10.49;69.84
71907;BME280;59781;52.090;5.030;2023-04-02T16:38:45;102580.84;;;10.32;69.78
71907;BME280;59781;52.090;5.030;2023-04-02T16:44:11;102581.22;;;10.05;71.54
71907;BME280;59781;52.090;5.030;2023-04-02T16:47:27;102576.06;;;10.36;71.03
71907;BME280;59781;52.090;5.030;2023-04-02T16:50:29;102591.88;;;9.62;75.21
71907;BME280;59781;52.090;5.030;2023-04-02T16:56:20;102598.50;;;10.03;72.45
71907;BME280;59781;52.090;5.030;2023-04-02T17:02:03;102614.91;;;9.77;75.25
71907;BME280;59781;52.090;5.030;2023-04-02T17:07:43;102613.91;;;9.78;74.38
71907;BME280;59781;52.090;5.030;2023-04-02T17:10:56;102622.59;;;10.04;75.41
71907;BME280;59781;52.090;5.030;2023-04-02T17:13:41;102630.28;;;9.53;75.23
71907;BME280;59781;52.090;5.030;2023-04-02T17:18:39;102638.84;;;9.47;78.37
71907;BME280;59781;52.090;5.030;2023-04-02T17:21:14;102640.69;;;9.11;79.95
71907;BME280;59781;52.090;5.030;2023-04-02T17:23:51;102640.81;;;9.10;83.52
71907;BME280;59781;52.090;5.030;2023-04-02T17:26:23;102652.25;;;9.25;82.08
71907;BME280;59781;52.090;5.030;2023-04-02T17:28:55;102650.56;;;9.00;83.96
71907;BME280;59781;52.090;5.030;2023-04-02T17:31:30;102653.28;;;9.11;82.53
71907;BME280;59781;52.090;5.030;2023-04-02T17:34:21;102660.75;;;8.83;83.66
71907;BME280;59781;52.090;5.030;2023-04-02T17:48:28;102686.13;;;9.03;83.92
71907;BME280;59781;52.090;5.030;2023-04-02T17:57:17;102681.91;;;8.88;89.63
71907;BME280;59781;52.090;5.030;2023-04-02T18:11:56;102718.44;;;8.54;100.00
71907;BME280;59781;52.090;5.030;2023-04-02T18:17:55;102721.72;;;8.46;100.00
71907;BME280;59781;52.090;5.030;2023-04-02T18:21:06;102729.97;;;8.56;100.00
71907;BME280;59781;52.090;5.030;2023-04-02T18:29:53;102746.22;;;8.16;100.00
71907;BME280;59781;52.090;5.030;2023-04-02T18:45:28;102775.41;;;8.21;100.00
71907;BME280;59781;52.090;5.030;2023-04-02T18:50:39;102783.25;;;8.11;100.00
71907;BME280;59781;52.090;5.030;2023-04-02T18:53:13;102795.25;;;7.67;100.00
71907;BME280;59781;52.090;5.030;2023-04-02T18:55:49;102805.41;;;7.75;100.00
71907;BME280;59781;52.090;5.030;2023-04-02T19:01:26;102810.44;;;7.67;100.00
71907;BME280;59781;52.090;5.030;2023-04-02T19:04:06;102816.47;;;7.70;100.00